sensor_id;sensor_type;location;lat;lon;timestamp;P1;durP1;ratioP1;P2;durP2;ratioP2
38529;SDS011;24301;54.332;48.386;2023-11-21T00:02:16;4.17;;;2.97;;
38529;SDS011;24301;54.332;48.386;2023-11-21T00:04:42;5.17;;;2.90;;
38529;SDS011;24301;54.332;48.386;2023-11-21T00:07:08;5.10;;;2.50;;
38529;SDS011;24301;54.332;48.386;2023-11-21T00:09:34;4.03;;;2.53;;
38529;SDS011;24301;54.332;48.386;2023-11-21T00:12:02;3.50;;;2.60;;
38529;SDS011;24301;54.332;48.386;2023-11-21T00:14:28;3.57;;;2.40;;
38529;SDS011;24301;54.332;48.386;2023-11-21T00:16:54;4.90;;;2.60;;
38529;SDS011;24301;54.332;48.386;2023-11-21T00:19:20;3.27;;;2.43;;
38529;SDS011;24301;54.332;48.386;2023-11-21T00:21:46;4.77;;;3.37;;
38529;SDS011;24301;54.332;48.386;2023-11-21T00:24:12;4.03;;;2.90;;
38529;SDS011;24301;54.332;48.386;2023-11-21T00:26:39;4.37;;;2.80;;
38529;SDS011;24301;54.332;48.386;2023-11-21T00:29:06;4.07;;;2.43;;
38529;SDS011;24301;54.332;48.386;2023-11-21T00:31:34;4.23;;;2.67;;
38529;SDS011;24301;54.332;48.386;2023-11-21T00:34:04;4.53;;;3.10;;
38529;SDS011;24301;54.332;48.386;2023-11-21T00:36:33;4.20;;;3.10;;
38529;SDS011;24301;54.332;48.386;2023-11-21T00:39:00;4.87;;;2.80;;
38529;SDS011;24301;54.332;48.386;2023-11-21T00:41:28;5.50;;;3.47;;
38529;SDS011;24301;54.332;48.386;2023-11-21T00:43:54;3.57;;;2.60;;
38529;SDS011;24301;54.332;48.386;2023-11-21T00:46:21;5.03;;;3.10;;
38529;SDS011;24301;54.332;48.386;2023-11-21T00:48:48;4.57;;;2.90;;
38529;SDS011;24301;54.332;48.386;2023-11-21T00:51:15;4.20;;;2.90;;
38529;SDS011;24301;54.332;48.386;2023-11-21T00:53:43;4.23;;;2.80;;
38529;SDS011;24301;54.332;48.386;2023-11-21T00:56:09;5.17;;;3.00;;
38529;SDS011;24301;54.332;48.386;2023-11-21T00:58:36;4.03;;;2.77;;
38529;SDS011;24301;54.332;48.386;2023-11-21T01:01:02;4.33;;;2.70;;
38529;SDS011;24301;54.332;48.386;2023-11-21T01:03:29;3.77;;;2.53;;
38529;SDS011;24301;54.332;48.386;2023-11-21T01:05:55;5.00;;;3.63;;
38529;SDS011;24301;54.332;48.386;2023-11-21T01:08:21;4.83;;;3.30;;
38529;SDS011;24301;54.332;48.386;2023-11-21T01:10:47;3.53;;;2.57;;
38529;SDS011;24301;54.332;48.386;2023-11-21T01:13:14;3.60;;;2.83;;
38529;SDS011;24301;54.332;48.386;2023-11-21T01:15:41;5.97;;;3.03;;
38529;SDS011;24301;54.332;48.386;2023-11-21T01:18:07;4.40;;;2.87;;
38529;SDS011;24301;54.332;48.386;2023-11-21T01:20:34;3.93;;;2.50;;
38529;SDS011;24301;54.332;48.386;2023-11-21T01:23:00;4.00;;;2.73;;
38529;SDS011;24301;54.332;48.386;2023-11-21T01:25:27;4.57;;;3.00;;
38529;SDS011;24301;54.332;48.386;2023-11-21T01:27:53;5.57;;;2.70;;
38529;SDS011;24301;54.332;48.386;2023-11-21T01:30:19;3.60;;;2.43;;
38529;SDS011;24301;54.332;48.386;2023-11-21T01:32:45;4.30;;;2.60;;
38529;SDS011;24301;54.332;48.386;2023-11-21T01:35:11;4.47;;;2.57;;
38529;SDS011;24301;54.332;48.386;2023-11-21T01:37:37;4.60;;;2.70;;
38529;SDS011;24301;54.332;48.386;2023-11-21T01:40:04;3.50;;;2.67;;
38529;SDS011;24301;54.332;48.386;2023-11-21T01:42:39;3.80;;;2.37;;
38529;SDS011;24301;54.332;48.386;2023-11-21T01:45:06;3.43;;;2.43;;
38529;SDS011;24301;54.332;48.386;2023-11-21T01:47:33;3.50;;;2.50;;
38529;SDS011;24301;54.332;48.386;2023-11-21T01:50:01;4.10;;;2.40;;
38529;SDS011;24301;54.332;48.386;2023-11-21T01:52:30;3.17;;;2.33;;
38529;SDS011;24301;54.332;48.386;2023-11-21T01:54:57;3.07;;;2.47;;
38529;SDS011;24301;54.332;48.386;2023-11-21T01:57:25;3.17;;;2.20;;
38529;SDS011;24301;54.332;48.386;2023-11-21T01:59:51;4.23;;;2.70;;
38529;SDS011;24301;54.332;48.386;2023-11-21T02:02:20;4.23;;;2.53;;
38529;SDS011;24301;54.332;48.386;2023-11-21T02:04:46;3.53;;;2.53;;
38529;SDS011;24301;54.332;48.386;2023-11-21T02:07:12;3.97;;;2.40;;
38529;SDS011;24301;54.332;48.386;2023-11-21T02:09:38;5.70;;;2.90;;
38529;SDS011;24301;54.332;48.386;2023-11-21T02:12:08;3.20;;;2.20;;
38529;SDS011;24301;54.332;48.386;2023-11-21T02:14:36;3.10;;;2.50;;
38529;SDS011;24301;54.332;48.386;2023-11-21T02:17:02;3.40;;;2.27;;
38529;SDS011;24301;54.332;48.386;2023-11-21T02:19:30;4.53;;;2.90;;
38529;SDS011;24301;54.332;48.386;2023-11-21T02:22:18;4.87;;;2.70;;
38529;SDS011;24301;54.332;48.386;2023-11-21T02:24:45;5.03;;;3.10;;
38529;SDS011;24301;54.332;48.386;2023-11-21T02:27:12;6.27;;;3.57;;
38529;SDS011;24301;54.332;48.386;2023-11-21T02:29:39;3.73;;;2.83;;
38529;SDS011;24301;54.332;48.386;2023-11-21T02:32:05;6.30;;;2.90;;
38529;SDS011;24301;54.332;48.386;2023-11-21T02:34:31;4.90;;;2.90;;
38529;SDS011;24301;54.332;48.386;2023-11-21T02:36:57;4.03;;;2.33;;
38529;SDS011;24301;54.332;48.386;2023-11-21T02:39:23;6.00;;;3.10;;
38529;SDS011;24301;54.332;48.386;2023-11-21T02:41:49;4.23;;;2.77;;
38529;SDS011;24301;54.332;48.386;2023-11-21T02:44:16;4.57;;;2.80;;
38529;SDS011;24301;54.332;48.386;2023-11-21T02:46:42;3.47;;;2.57;;
38529;SDS011;24301;54.332;48.386;2023-11-21T02:49:08;3.53;;;2.40;;
38529;SDS011;24301;54.332;48.386;2023-11-21T02:51:35;3.63;;;2.23;;
38529;SDS011;24301;54.332;48.386;2023-11-21T02:54:03;2.87;;;2.30;;
38529;SDS011;24301;54.332;48.386;2023-11-21T02:56:34;4.17;;;2.47;;
38529;SDS011;24301;54.332;48.386;2023-11-21T02:59:00;5.53;;;3.23;;
38529;SDS011;24301;54.332;48.386;2023-11-21T03:01:26;3.03;;;2.30;;
38529;SDS011;24301;54.332;48.386;2023-11-21T03:03:53;4.17;;;2.47;;
38529;SDS011;24301;54.332;48.386;2023-11-21T03:06:21;4.63;;;2.63;;
38529;SDS011;24301;54.332;48.386;2023-11-21T03:08:48;4.03;;;2.70;;
38529;SDS011;24301;54.332;48.386;2023-11-21T03:11:14;3.33;;;2.60;;
38529;SDS011;24301;54.332;48.386;2023-11-21T03:13:40;3.60;;;2.60;;
38529;SDS011;24301;54.332;48.386;2023-11-21T03:16:09;3.93;;;2.77;;
38529;SDS011;24301;54.332;48.386;2023-11-21T03:18:36;3.60;;;2.70;;
38529;SDS011;24301;54.332;48.386;2023-11-21T03:21:06;3.17;;;2.13;;
38529;SDS011;24301;54.332;48.386;2023-11-21T03:23:35;3.90;;;2.33;;
38529;SDS011;24301;54.332;48.386;2023-11-21T03:26:03;3.30;;;2.50;;
38529;SDS011;24301;54.332;48.386;2023-11-21T03:28:30;3.70;;;2.57;;
38529;SDS011;24301;54.332;48.386;2023-11-21T03:30:57;5.20;;;2.60;;
38529;SDS011;24301;54.332;48.386;2023-11-21T03:33:24;2.67;;;2.10;;
38529;SDS011;24301;54.332;48.386;2023-11-21T03:35:51;4.33;;;2.70;;
38529;SDS011;24301;54.332;48.386;2023-11-21T03:38:19;3.43;;;2.53;;
38529;SDS011;24301;54.332;48.386;2023-11-21T03:40:46;3.70;;;2.30;;
38529;SDS011;24301;54.332;48.386;2023-11-21T03:43:13;4.50;;;2.87;;
38529;SDS011;24301;54.332;48.386;2023-11-21T03:45:40;4.00;;;2.37;;
38529;SDS011;24301;54.332;48.386;2023-11-21T03:48:07;4.10;;;2.80;;
38529;SDS011;24301;54.332;48.386;2023-11-21T03:50:36;3.43;;;2.53;;
38529;SDS011;24301;54.332;48.386;2023-11-21T03:53:03;3.63;;;2.57;;
38529;SDS011;24301;54.332;48.386;2023-11-21T03:55:29;3.77;;;2.60;;
38529;SDS011;24301;54.332;48.386;2023-11-21T03:57:57;4.70;;;2.67;;
38529;SDS011;24301;54.332;48.386;2023-11-21T04:00:24;3.60;;;3.00;;
38529;SDS011;24301;54.332;48.386;2023-11-21T04:02:53;7.70;;;3.63;;
38529;SDS011;24301;54.332;48.386;2023-11-21T04:05:20;3.87;;;3.17;;
38529;SDS011;24301;54.332;48.386;2023-11-21T04:07:49;3.70;;;2.60;;
38529;SDS011;24301;54.332;48.386;2023-11-21T04:10:15;3.63;;;3.20;;
38529;SDS011;24301;54.332;48.386;2023-11-21T04:12:41;3.50;;;2.60;;
38529;SDS011;24301;54.332;48.386;2023-11-21T04:15:08;4.10;;;2.90;;
38529;SDS011;24301;54.332;48.386;2023-11-21T04:17:35;4.37;;;3.50;;
38529;SDS011;24301;54.332;48.386;2023-11-21T04:20:03;6.10;;;3.17;;
38529;SDS011;24301;54.332;48.386;2023-11-21T04:22:40;4.57;;;2.97;;
38529;SDS011;24301;54.332;48.386;2023-11-21T04:25:13;4.57;;;3.10;;
38529;SDS011;24301;54.332;48.386;2023-11-21T04:27:41;6.03;;;3.33;;
38529;SDS011;24301;54.332;48.386;2023-11-21T04:30:10;5.20;;;3.50;;
38529;SDS011;24301;54.332;48.386;2023-11-21T04:32:36;5.73;;;3.47;;
38529;SDS011;24301;54.332;48.386;2023-11-21T04:35:03;4.97;;;3.63;;
38529;SDS011;24301;54.332;48.386;2023-11-21T04:37:29;6.40;;;3.70;;
38529;SDS011;24301;54.332;48.386;2023-11-21T04:39:55;6.77;;;3.33;;
38529;SDS011;24301;54.332;48.386;2023-11-21T04:42:21;5.43;;;3.40;;
38529;SDS011;24301;54.332;48.386;2023-11-21T04:44:48;6.87;;;3.67;;
38529;SDS011;24301;54.332;48.386;2023-11-21T04:47:14;6.27;;;4.47;;
38529;SDS011;24301;54.332;48.386;2023-11-21T04:49:42;6.27;;;4.23;;
38529;SDS011;24301;54.332;48.386;2023-11-21T04:52:08;7.80;;;4.90;;
38529;SDS011;24301;54.332;48.386;2023-11-21T04:54:35;6.70;;;4.33;;
38529;SDS011;24301;54.332;48.386;2023-11-21T04:57:02;8.03;;;4.20;;
38529;SDS011;24301;54.332;48.386;2023-11-21T04:59:28;6.53;;;4.57;;
38529;SDS011;24301;54.332;48.386;2023-11-21T05:01:54;8.37;;;4.57;;
38529;SDS011;24301;54.332;48.386;2023-11-21T05:04:20;9.13;;;4.67;;
38529;SDS011;24301;54.332;48.386;2023-11-21T05:06:48;6.47;;;4.50;;
38529;SDS011;24301;54.332;48.386;2023-11-21T05:09:15;8.90;;;4.00;;
38529;SDS011;24301;54.332;48.386;2023-11-21T05:11:42;6.60;;;4.57;;
38529;SDS011;24301;54.332;48.386;2023-11-21T05:14:08;8.73;;;4.37;;
38529;SDS011;24301;54.332;48.386;2023-11-21T05:16:35;7.70;;;4.53;;
38529;SDS011;24301;54.332;48.386;2023-11-21T05:19:01;7.10;;;4.47;;
38529;SDS011;24301;54.332;48.386;2023-11-21T05:21:27;7.43;;;4.57;;
38529;SDS011;24301;54.332;48.386;2023-11-21T05:23:55;8.93;;;4.87;;
38529;SDS011;24301;54.332;48.386;2023-11-21T05:26:21;7.80;;;4.33;;
38529;SDS011;24301;54.332;48.386;2023-11-21T05:28:47;7.17;;;4.80;;
38529;SDS011;24301;54.332;48.386;2023-11-21T05:31:13;7.07;;;4.73;;
38529;SDS011;24301;54.332;48.386;2023-11-21T05:33:40;5.93;;;4.17;;
38529;SDS011;24301;54.332;48.386;2023-11-21T05:36:06;5.43;;;3.73;;
38529;SDS011;24301;54.332;48.386;2023-11-21T05:38:34;6.73;;;4.57;;
38529;SDS011;24301;54.332;48.386;2023-11-21T05:41:02;7.30;;;4.30;;
38529;SDS011;24301;54.332;48.386;2023-11-21T05:43:30;8.03;;;5.47;;
38529;SDS011;24301;54.332;48.386;2023-11-21T05:45:58;6.03;;;4.53;;
38529;SDS011;24301;54.332;48.386;2023-11-21T05:48:24;7.43;;;5.30;;
38529;SDS011;24301;54.332;48.386;2023-11-21T05:50:51;7.50;;;4.87;;
38529;SDS011;24301;54.332;48.386;2023-11-21T05:53:18;6.67;;;4.77;;
38529;SDS011;24301;54.332;48.386;2023-11-21T05:55:44;9.33;;;5.67;;
38529;SDS011;24301;54.332;48.386;2023-11-21T05:58:10;6.73;;;4.60;;
38529;SDS011;24301;54.332;48.386;2023-11-21T06:00:36;9.57;;;4.70;;
38529;SDS011;24301;54.332;48.386;2023-11-21T06:03:02;8.37;;;5.27;;
38529;SDS011;24301;54.332;48.386;2023-11-21T06:05:29;8.87;;;5.80;;
38529;SDS011;24301;54.332;48.386;2023-11-21T06:07:58;7.27;;;5.27;;
38529;SDS011;24301;54.332;48.386;2023-11-21T06:10:25;6.73;;;5.13;;
38529;SDS011;24301;54.332;48.386;2023-11-21T06:12:51;7.57;;;5.37;;
38529;SDS011;24301;54.332;48.386;2023-11-21T06:15:18;11.73;;;6.10;;
38529;SDS011;24301;54.332;48.386;2023-11-21T06:17:50;11.63;;;7.63;;
38529;SDS011;24301;54.332;48.386;2023-11-21T06:20:18;12.10;;;6.93;;
38529;SDS011;24301;54.332;48.386;2023-11-21T06:22:46;11.43;;;6.57;;
38529;SDS011;24301;54.332;48.386;2023-11-21T06:25:13;10.73;;;6.27;;
38529;SDS011;24301;54.332;48.386;2023-11-21T06:27:40;12.93;;;7.30;;
38529;SDS011;24301;54.332;48.386;2023-11-21T06:30:11;17.27;;;7.07;;
38529;SDS011;24301;54.332;48.386;2023-11-21T06:32:39;17.83;;;8.40;;
38529;SDS011;24301;54.332;48.386;2023-11-21T06:35:06;14.33;;;8.47;;
38529;SDS011;24301;54.332;48.386;2023-11-21T06:37:33;13.23;;;8.53;;
38529;SDS011;24301;54.332;48.386;2023-11-21T06:40:00;13.17;;;7.53;;
38529;SDS011;24301;54.332;48.386;2023-11-21T06:42:26;13.93;;;8.10;;
38529;SDS011;24301;54.332;48.386;2023-11-21T06:44:53;15.80;;;8.87;;
38529;SDS011;24301;54.332;48.386;2023-11-21T06:47:20;12.10;;;8.83;;
38529;SDS011;24301;54.332;48.386;2023-11-21T06:49:46;15.27;;;9.07;;
38529;SDS011;24301;54.332;48.386;2023-11-21T06:52:13;18.33;;;9.33;;
38529;SDS011;24301;54.332;48.386;2023-11-21T06:54:40;16.40;;;10.20;;
38529;SDS011;24301;54.332;48.386;2023-11-21T06:57:05;14.43;;;8.50;;
38529;SDS011;24301;54.332;48.386;2023-11-21T06:59:31;13.73;;;8.73;;
38529;SDS011;24301;54.332;48.386;2023-11-21T07:01:57;15.10;;;8.80;;
38529;SDS011;24301;54.332;48.386;2023-11-21T07:04:24;14.83;;;8.53;;
38529;SDS011;24301;54.332;48.386;2023-11-21T07:06:54;17.47;;;10.30;;
38529;SDS011;24301;54.332;48.386;2023-11-21T07:09:20;15.80;;;9.13;;
38529;SDS011;24301;54.332;48.386;2023-11-21T07:11:52;19.43;;;8.57;;
38529;SDS011;24301;54.332;48.386;2023-11-21T07:14:18;14.60;;;8.93;;
38529;SDS011;24301;54.332;48.386;2023-11-21T07:16:45;13.67;;;8.13;;
38529;SDS011;24301;54.332;48.386;2023-11-21T07:19:12;16.27;;;8.30;;
38529;SDS011;24301;54.332;48.386;2023-11-21T07:21:39;19.43;;;10.23;;
38529;SDS011;24301;54.332;48.386;2023-11-21T07:24:06;15.87;;;8.30;;
38529;SDS011;24301;54.332;48.386;2023-11-21T07:26:33;14.13;;;8.87;;
38529;SDS011;24301;54.332;48.386;2023-11-21T07:29:00;20.13;;;10.87;;
38529;SDS011;24301;54.332;48.386;2023-11-21T07:31:28;18.07;;;10.03;;
38529;SDS011;24301;54.332;48.386;2023-11-21T07:33:55;23.00;;;10.03;;
38529;SDS011;24301;54.332;48.386;2023-11-21T07:36:24;17.87;;;9.57;;
38529;SDS011;24301;54.332;48.386;2023-11-21T07:38:50;19.17;;;10.80;;
38529;SDS011;24301;54.332;48.386;2023-11-21T07:41:17;16.50;;;10.40;;
38529;SDS011;24301;54.332;48.386;2023-11-21T07:43:44;19.33;;;10.20;;
38529;SDS011;24301;54.332;48.386;2023-11-21T07:46:11;18.07;;;9.87;;
38529;SDS011;24301;54.332;48.386;2023-11-21T07:48:38;21.13;;;10.77;;
38529;SDS011;24301;54.332;48.386;2023-11-21T07:51:05;16.43;;;10.27;;
38529;SDS011;24301;54.332;48.386;2023-11-21T07:53:32;20.70;;;10.63;;
38529;SDS011;24301;54.332;48.386;2023-11-21T07:56:02;21.03;;;10.83;;
38529;SDS011;24301;54.332;48.386;2023-11-21T07:58:30;24.30;;;12.33;;
38529;SDS011;24301;54.332;48.386;2023-11-21T08:00:56;19.87;;;10.97;;
38529;SDS011;24301;54.332;48.386;2023-11-21T08:03:23;22.03;;;12.50;;
38529;SDS011;24301;54.332;48.386;2023-11-21T08:05:49;22.80;;;11.63;;
38529;SDS011;24301;54.332;48.386;2023-11-21T08:08:15;20.77;;;11.07;;
38529;SDS011;24301;54.332;48.386;2023-11-21T08:10:44;21.57;;;12.17;;
38529;SDS011;24301;54.332;48.386;2023-11-21T08:13:25;23.63;;;11.07;;
38529;SDS011;24301;54.332;48.386;2023-11-21T08:15:56;19.03;;;11.27;;
38529;SDS011;24301;54.332;48.386;2023-11-21T08:18:27;23.27;;;12.67;;
38529;SDS011;24301;54.332;48.386;2023-11-21T08:20:54;23.90;;;14.67;;
38529;SDS011;24301;54.332;48.386;2023-11-21T08:23:20;28.63;;;13.90;;
38529;SDS011;24301;54.332;48.386;2023-11-21T08:25:51;24.07;;;13.83;;
38529;SDS011;24301;54.332;48.386;2023-11-21T08:28:18;25.70;;;14.10;;
38529;SDS011;24301;54.332;48.386;2023-11-21T08:30:44;23.40;;;13.13;;
38529;SDS011;24301;54.332;48.386;2023-11-21T08:33:10;23.67;;;13.57;;
38529;SDS011;24301;54.332;48.386;2023-11-21T08:35:38;20.63;;;12.50;;
38529;SDS011;24301;54.332;48.386;2023-11-21T08:38:04;20.17;;;12.03;;
38529;SDS011;24301;54.332;48.386;2023-11-21T08:40:30;22.60;;;11.67;;
38529;SDS011;24301;54.332;48.386;2023-11-21T08:42:56;23.57;;;12.47;;
38529;SDS011;24301;54.332;48.386;2023-11-21T08:45:24;19.57;;;10.20;;
38529;SDS011;24301;54.332;48.386;2023-11-21T08:47:54;20.93;;;11.30;;
38529;SDS011;24301;54.332;48.386;2023-11-21T08:50:20;23.23;;;11.50;;
38529;SDS011;24301;54.332;48.386;2023-11-21T08:52:46;24.47;;;11.40;;
38529;SDS011;24301;54.332;48.386;2023-11-21T08:55:13;23.60;;;11.73;;
38529;SDS011;24301;54.332;48.386;2023-11-21T08:57:39;25.63;;;12.20;;
38529;SDS011;24301;54.332;48.386;2023-11-21T09:00:07;17.57;;;10.67;;
38529;SDS011;24301;54.332;48.386;2023-11-21T09:02:38;19.80;;;12.30;;
38529;SDS011;24301;54.332;48.386;2023-11-21T09:05:05;17.00;;;11.90;;
38529;SDS011;24301;54.332;48.386;2023-11-21T09:07:31;22.60;;;10.80;;
38529;SDS011;24301;54.332;48.386;2023-11-21T09:09:57;22.07;;;11.57;;
38529;SDS011;24301;54.332;48.386;2023-11-21T09:12:23;19.07;;;10.80;;
38529;SDS011;24301;54.332;48.386;2023-11-21T09:14:50;25.80;;;14.37;;
38529;SDS011;24301;54.332;48.386;2023-11-21T09:17:17;39.53;;;14.30;;
38529;SDS011;24301;54.332;48.386;2023-11-21T09:19:43;20.40;;;11.33;;
38529;SDS011;24301;54.332;48.386;2023-11-21T09:22:10;27.00;;;14.17;;
38529;SDS011;24301;54.332;48.386;2023-11-21T09:24:36;32.03;;;13.87;;
38529;SDS011;24301;54.332;48.386;2023-11-21T09:27:03;26.50;;;15.73;;
38529;SDS011;24301;54.332;48.386;2023-11-21T09:29:30;36.93;;;15.30;;
38529;SDS011;24301;54.332;48.386;2023-11-21T09:31:57;30.63;;;15.87;;
38529;SDS011;24301;54.332;48.386;2023-11-21T09:34:27;24.70;;;14.27;;
38529;SDS011;24301;54.332;48.386;2023-11-21T09:36:53;56.20;;;16.33;;
38529;SDS011;24301;54.332;48.386;2023-11-21T09:39:19;23.43;;;12.30;;
38529;SDS011;24301;54.332;48.386;2023-11-21T09:41:52;21.63;;;11.83;;
38529;SDS011;24301;54.332;48.386;2023-11-21T09:44:29;29.20;;;12.53;;
38529;SDS011;24301;54.332;48.386;2023-11-21T09:47:02;28.17;;;12.63;;
38529;SDS011;24301;54.332;48.386;2023-11-21T09:49:28;28.30;;;12.50;;
38529;SDS011;24301;54.332;48.386;2023-11-21T09:52:00;35.97;;;12.50;;
38529;SDS011;24301;54.332;48.386;2023-11-21T09:54:29;19.77;;;11.60;;
38529;SDS011;24301;54.332;48.386;2023-11-21T09:56:57;17.27;;;11.03;;
38529;SDS011;24301;54.332;48.386;2023-11-21T09:59:25;20.40;;;11.47;;
38529;SDS011;24301;54.332;48.386;2023-11-21T10:01:57;20.27;;;12.03;;
38529;SDS011;24301;54.332;48.386;2023-11-21T10:04:27;19.20;;;11.13;;
38529;SDS011;24301;54.332;48.386;2023-11-21T10:06:53;26.10;;;12.23;;
38529;SDS011;24301;54.332;48.386;2023-11-21T10:09:20;119.63;;;22.80;;
38529;SDS011;24301;54.332;48.386;2023-11-21T10:11:47;64.97;;;16.17;;
38529;SDS011;24301;54.332;48.386;2023-11-21T10:14:15;107.93;;;20.47;;
38529;SDS011;24301;54.332;48.386;2023-11-21T10:16:44;33.83;;;13.17;;
38529;SDS011;24301;54.332;48.386;2023-11-21T10:19:12;21.77;;;12.47;;
38529;SDS011;24301;54.332;48.386;2023-11-21T10:21:42;21.53;;;11.47;;
38529;SDS011;24301;54.332;48.386;2023-11-21T10:24:08;27.60;;;14.40;;
38529;SDS011;24301;54.332;48.386;2023-11-21T10:26:34;22.63;;;10.93;;
38529;SDS011;24301;54.332;48.386;2023-11-21T10:29:02;20.23;;;10.70;;
38529;SDS011;24301;54.332;48.386;2023-11-21T10:31:31;52.63;;;12.93;;
38529;SDS011;24301;54.332;48.386;2023-11-21T10:34:17;105.53;;;17.60;;
38529;SDS011;24301;54.332;48.386;2023-11-21T10:36:45;17.93;;;10.70;;
38529;SDS011;24301;54.332;48.386;2023-11-21T10:39:18;19.57;;;10.00;;
38529;SDS011;24301;54.332;48.386;2023-11-21T10:41:49;15.80;;;10.43;;
38529;SDS011;24301;54.332;48.386;2023-11-21T10:44:17;17.40;;;9.50;;
38529;SDS011;24301;54.332;48.386;2023-11-21T10:46:48;19.20;;;11.73;;
38529;SDS011;24301;54.332;48.386;2023-11-21T10:49:23;15.03;;;9.23;;
38529;SDS011;24301;54.332;48.386;2023-11-21T10:51:53;14.13;;;8.75;;
38529;SDS011;24301;54.332;48.386;2023-11-21T10:54:20;19.80;;;10.10;;
38529;SDS011;24301;54.332;48.386;2023-11-21T10:56:47;14.90;;;9.47;;
38529;SDS011;24301;54.332;48.386;2023-11-21T10:59:16;14.40;;;8.77;;
38529;SDS011;24301;54.332;48.386;2023-11-21T11:01:46;15.83;;;9.63;;
38529;SDS011;24301;54.332;48.386;2023-11-21T11:04:18;17.38;;;9.35;;
38529;SDS011;24301;54.332;48.386;2023-11-21T11:06:54;19.77;;;11.93;;
38529;SDS011;24301;54.332;48.386;2023-11-21T11:09:22;22.10;;;10.93;;
38529;SDS011;24301;54.332;48.386;2023-11-21T11:11:48;20.73;;;11.13;;
38529;SDS011;24301;54.332;48.386;2023-11-21T11:14:16;19.20;;;11.77;;
38529;SDS011;24301;54.332;48.386;2023-11-21T11:16:45;21.20;;;12.60;;
38529;SDS011;24301;54.332;48.386;2023-11-21T11:19:11;19.47;;;10.47;;
38529;SDS011;24301;54.332;48.386;2023-11-21T11:38:55;15.60;;;9.60;;
38529;SDS011;24301;54.332;48.386;2023-11-21T11:41:25;19.37;;;10.60;;
38529;SDS011;24301;54.332;48.386;2023-11-21T11:43:52;23.40;;;10.00;;
38529;SDS011;24301;54.332;48.386;2023-11-21T11:46:19;17.73;;;9.83;;
38529;SDS011;24301;54.332;48.386;2023-11-21T11:48:48;18.40;;;10.47;;
38529;SDS011;24301;54.332;48.386;2023-11-21T11:51:28;18.23;;;10.13;;
38529;SDS011;24301;54.332;48.386;2023-11-21T11:53:56;15.17;;;9.83;;
38529;SDS011;24301;54.332;48.386;2023-11-21T11:56:23;15.67;;;8.63;;
38529;SDS011;24301;54.332;48.386;2023-11-21T11:59:00;15.17;;;9.77;;
38529;SDS011;24301;54.332;48.386;2023-11-21T12:01:34;12.07;;;8.53;;
38529;SDS011;24301;54.332;48.386;2023-11-21T12:06:56;14.57;;;8.80;;
38529;SDS011;24301;54.332;48.386;2023-11-21T12:09:31;12.47;;;7.90;;
38529;SDS011;24301;54.332;48.386;2023-11-21T12:11:57;16.67;;;7.53;;
38529;SDS011;24301;54.332;48.386;2023-11-21T12:14:24;13.17;;;7.80;;
38529;SDS011;24301;54.332;48.386;2023-11-21T12:16:51;9.63;;;7.10;;
38529;SDS011;24301;54.332;48.386;2023-11-21T12:19:17;15.47;;;7.73;;
38529;SDS011;24301;54.332;48.386;2023-11-21T12:21:44;12.10;;;7.50;;
38529;SDS011;24301;54.332;48.386;2023-11-21T12:24:10;9.87;;;6.07;;
38529;SDS011;24301;54.332;48.386;2023-11-21T12:26:40;12.97;;;7.43;;
38529;SDS011;24301;54.332;48.386;2023-11-21T12:29:06;12.17;;;7.00;;
38529;SDS011;24301;54.332;48.386;2023-11-21T12:31:33;12.53;;;7.53;;
38529;SDS011;24301;54.332;48.386;2023-11-21T12:34:00;9.87;;;6.17;;
38529;SDS011;24301;54.332;48.386;2023-11-21T12:36:27;10.90;;;6.47;;
38529;SDS011;24301;54.332;48.386;2023-11-21T12:38:55;10.93;;;6.10;;
38529;SDS011;24301;54.332;48.386;2023-11-21T12:41:22;13.07;;;6.87;;
38529;SDS011;24301;54.332;48.386;2023-11-21T12:43:48;9.73;;;5.80;;
38529;SDS011;24301;54.332;48.386;2023-11-21T12:46:14;7.93;;;5.23;;
38529;SDS011;24301;54.332;48.386;2023-11-21T12:48:42;13.57;;;6.93;;
38529;SDS011;24301;54.332;48.386;2023-11-21T12:51:10;11.80;;;6.97;;
38529;SDS011;24301;54.332;48.386;2023-11-21T12:53:37;11.90;;;7.40;;
38529;SDS011;24301;54.332;48.386;2023-11-21T12:56:07;11.27;;;6.37;;
38529;SDS011;24301;54.332;48.386;2023-11-21T12:58:39;9.70;;;5.63;;
38529;SDS011;24301;54.332;48.386;2023-11-21T13:01:10;10.60;;;6.20;;
38529;SDS011;24301;54.332;48.386;2023-11-21T13:03:43;9.97;;;6.27;;
38529;SDS011;24301;54.332;48.386;2023-11-21T13:06:14;11.37;;;6.80;;
38529;SDS011;24301;54.332;48.386;2023-11-21T13:08:41;9.63;;;6.30;;
38529;SDS011;24301;54.332;48.386;2023-11-21T13:11:10;9.67;;;5.97;;
38529;SDS011;24301;54.332;48.386;2023-11-21T13:13:36;8.07;;;5.33;;
38529;SDS011;24301;54.332;48.386;2023-11-21T13:16:07;9.40;;;6.23;;
38529;SDS011;24301;54.332;48.386;2023-11-21T13:18:33;11.80;;;7.20;;
38529;SDS011;24301;54.332;48.386;2023-11-21T13:21:01;11.53;;;6.00;;
38529;SDS011;24301;54.332;48.386;2023-11-21T13:23:34;9.03;;;6.07;;
38529;SDS011;24301;54.332;48.386;2023-11-21T13:26:04;10.83;;;6.30;;
38529;SDS011;24301;54.332;48.386;2023-11-21T13:28:31;11.30;;;6.43;;
38529;SDS011;24301;54.332;48.386;2023-11-21T13:30:59;9.67;;;6.20;;
38529;SDS011;24301;54.332;48.386;2023-11-21T13:33:35;9.03;;;5.70;;
38529;SDS011;24301;54.332;48.386;2023-11-21T13:36:06;10.67;;;6.40;;
38529;SDS011;24301;54.332;48.386;2023-11-21T13:38:35;10.20;;;5.80;;
38529;SDS011;24301;54.332;48.386;2023-11-21T13:41:03;9.50;;;6.60;;
38529;SDS011;24301;54.332;48.386;2023-11-21T13:43:32;8.70;;;6.27;;
38529;SDS011;24301;54.332;48.386;2023-11-21T13:45:59;10.77;;;6.23;;
38529;SDS011;24301;54.332;48.386;2023-11-21T13:48:31;9.57;;;5.77;;
38529;SDS011;24301;54.332;48.386;2023-11-21T13:51:03;7.93;;;5.60;;
38529;SDS011;24301;54.332;48.386;2023-11-21T13:53:49;10.97;;;6.23;;
38529;SDS011;24301;54.332;48.386;2023-11-21T13:56:18;7.20;;;5.00;;
38529;SDS011;24301;54.332;48.386;2023-11-21T13:58:53;9.60;;;5.30;;
38529;SDS011;24301;54.332;48.386;2023-11-21T14:01:22;10.57;;;5.73;;
38529;SDS011;24301;54.332;48.386;2023-11-21T14:03:56;9.73;;;6.00;;
38529;SDS011;24301;54.332;48.386;2023-11-21T14:06:27;8.23;;;6.47;;
38529;SDS011;24301;54.332;48.386;2023-11-21T14:09:00;9.27;;;4.90;;
38529;SDS011;24301;54.332;48.386;2023-11-21T14:11:31;10.07;;;5.90;;
38529;SDS011;24301;54.332;48.386;2023-11-21T14:13:57;9.13;;;5.93;;
38529;SDS011;24301;54.332;48.386;2023-11-21T14:16:25;10.83;;;6.30;;
38529;SDS011;24301;54.332;48.386;2023-11-21T14:18:51;8.60;;;5.37;;
38529;SDS011;24301;54.332;48.386;2023-11-21T14:21:29;7.93;;;5.60;;
38529;SDS011;24301;54.332;48.386;2023-11-21T14:23:55;10.43;;;6.00;;
38529;SDS011;24301;54.332;48.386;2023-11-21T14:26:21;11.17;;;6.13;;
38529;SDS011;24301;54.332;48.386;2023-11-21T14:28:49;13.20;;;7.10;;
38529;SDS011;24301;54.332;48.386;2023-11-21T14:31:16;10.50;;;6.20;;
38529;SDS011;24301;54.332;48.386;2023-11-21T14:33:45;10.80;;;6.37;;
38529;SDS011;24301;54.332;48.386;2023-11-21T14:36:12;10.50;;;6.83;;
38529;SDS011;24301;54.332;48.386;2023-11-21T14:38:38;12.57;;;7.20;;
38529;SDS011;24301;54.332;48.386;2023-11-21T14:41:05;13.53;;;7.63;;
38529;SDS011;24301;54.332;48.386;2023-11-21T14:43:44;12.70;;;7.10;;
38529;SDS011;24301;54.332;48.386;2023-11-21T14:46:11;14.43;;;6.50;;
38529;SDS011;24301;54.332;48.386;2023-11-21T14:48:41;13.47;;;9.00;;